Time;durP1;ratioP1;P1;durP2;ratioP2;P2;SDS_P1;SDS_P2;PMS_P1;PMS_P2;Temp;Humidity;BMP_temperature;BMP_pressure;BME280_temperature;BME280_humidity;BME280_pressure;Samples;Min_cycle;Max_cycle;Signal;HPM_P1;HPM_P2
2021/05/12 00:01:49;;;;;;;15.10;11.25;;;;;;;10.53;100.00;100974.56;3558724;40;20159;-61
2021/05/12 00:04:15;;;;;;;15.40;11.35;;;;;;;10.52;100.00;100973.69;3555487;40;20041;-62
2021/05/12 00:06:41;;;;;;;16.15;11.07;;;;;;;10.56;100.00;100976.13;3557783;40;20146;-61
2021/05/12 00:09:08;;;;;;;13.23;10.85;;;;;;;10.56;100.00;100974.28;3556886;40;20052;-61
2021/05/12 00:11:34;;;;;;;14.52;10.13;;;;;;;10.48;100.00;100968.69;3551564;40;20055;-63
2021/05/12 00:14:00;;;;;;;13.68;11.23;;;;;;;10.40;100.00;100965.84;3556628;40;20049;-63
2021/05/12 00:16:26;;;;;;;12.60;10.73;;;;;;;10.45;100.00;100969.84;3557990;40;20082;-64
2021/05/12 00:18:52;;;;;;;13.32;11.32;;;;;;;10.44;100.00;100968.13;3555530;40;20042;-62
2021/05/12 00:21:26;;;;;;;18.88;11.65;;;;;;;10.45;100.00;100975.22;3553083;40;20085;-62
2021/05/12 00:23:59;;;;;;;17.48;11.93;;;;;;;10.46;100.00;100982.28;3554780;40;20355;-63
2021/05/12 00:26:28;;;;;;;15.18;10.85;;;;;;;10.46;100.00;100968.84;3551107;40;20501;-62
2021/05/12 00:28:54;;;;;;;16.17;10.35;;;;;;;10.50;100.00;100975.66;3552718;40;20330;-62
2021/05/12 00:31:20;;;;;;;18.08;10.52;;;;;;;10.48;100.00;100972.25;3555204;40;20662;-62
2021/05/12 00:33:46;;;;;;;12.48;9.65;;;;;;;10.45;100.00;100969.84;3552248;40;20161;-62
2021/05/12 00:36:12;;;;;;;15.77;9.85;;;;;;;10.43;100.00;100971.78;3556843;40;20339;-64
2021/05/12 00:38:38;;;;;;;13.65;10.73;;;;;;;10.44;100.00;100973.50;3557819;40;20052;-62
2021/05/12 00:41:05;;;;;;;16.65;11.45;;;;;;;10.41;100.00;100968.41;3552651;40;20396;-63
2021/05/12 00:43:32;;;;;;;15.95;12.13;;;;;;;10.36;100.00;100973.31;3558487;40;20327;-62
2021/05/12 00:45:58;;;;;;;13.38;10.30;;;;;;;10.34;100.00;100969.91;3554177;40;20545;-63
2021/05/12 00:48:24;;;;;;;15.57;11.73;;;;;;;10.27;100.00;100971.38;3556324;40;20372;-62
2021/05/12 00:50:50;;;;;;;15.30;11.45;;;;;;;10.30;100.00;100974.66;3556894;40;20126;-62
2021/05/12 00:53:16;;;;;;;13.07;10.95;;;;;;;10.37;100.00;100968.78;3557213;40;20123;-62
2021/05/12 00:55:41;;;;;;;11.65;9.77;;;;;;;10.40;100.00;100966.69;3554428;40;20079;-62
2021/05/12 00:58:08;;;;;;;15.18;11.18;;;;;;;10.38;100.00;100971.34;3555733;40;20045;-64
2021/05/12 01:00:34;;;;;;;14.90;10.65;;;;;;;10.34;100.00;100968.06;3557171;40;20132;-64
2021/05/12 01:03:02;;;;;;;13.65;10.90;;;;;;;10.23;100.00;100969.94;3556164;40;20361;-61
2021/05/12 01:05:39;;;;;;;15.60;11.63;;;;;;;10.17;100.00;100976.69;3553305;40;20041;-63
2021/05/12 01:08:06;;;;;;;14.50;11.50;;;;;;;10.20;100.00;100970.19;3555305;40;20053;-63
2021/05/12 01:10:32;;;;;;;14.43;11.32;;;;;;;10.21;100.00;100971.91;3555599;40;20041;-60
2021/05/12 01:12:59;;;;;;;14.85;11.90;;;;;;;10.21;100.00;100979.97;3556554;40;20410;-61
2021/05/12 01:15:26;;;;;;;15.75;11.80;;;;;;;10.22;100.00;100976.28;3554693;40;20092;-62
2021/05/12 01:17:52;;;;;;;15.00;11.52;;;;;;;10.11;100.00;100985.28;3552111;40;20076;-61
2021/05/12 01:20:19;;;;;;;16.58;11.52;;;;;;;10.30;100.00;100992.63;3550775;40;20057;-63
2021/05/12 01:22:46;;;;;;;15.23;12.13;;;;;;;10.20;100.00;100989.03;3554495;40;20312;-62
2021/05/12 01:25:12;;;;;;;18.90;14.18;;;;;;;10.08;100.00;100988.22;3547652;40;20053;-64
2021/05/12 01:27:39;;;;;;;19.05;14.27;;;;;;;9.97;100.00;100983.78;3555552;40;20303;-61
2021/05/12 01:30:07;;;;;;;18.92;14.30;;;;;;;9.93;100.00;100999.28;3550555;40;20075;-62
2021/05/12 01:32:35;;;;;;;18.60;13.75;;;;;;;9.94;100.00;101000.16;3548399;40;20059;-61
2021/05/12 01:35:06;;;;;;;19.20;14.27;;;;;;;9.91;100.00;101001.28;3555012;40;20065;-64
2021/05/12 01:40:30;;;;;;;21.70;14.68;;;;;;;9.88;100.00;101011.41;3580589;22;20079;-62
2021/05/12 01:42:56;;;;;;;21.63;15.00;;;;;;;9.77;100.00;101013.16;3556416;40;20095;-62
2021/05/12 01:45:22;;;;;;;20.83;15.73;;;;;;;9.75;100.00;101009.75;3557934;40;20427;-62
2021/05/12 01:47:48;;;;;;;19.40;15.52;;;;;;;9.71;100.00;101010.13;3560969;40;20053;-62
2021/05/12 01:50:15;;;;;;;17.55;13.98;;;;;;;9.67;100.00;101014.03;3556756;40;20057;-63
2021/05/12 01:52:42;;;;;;;19.58;14.45;;;;;;;9.68;100.00;101010.38;3558460;40;20088;-63
2021/05/12 01:55:10;;;;;;;20.45;14.80;;;;;;;9.67;100.00;101017.56;3557507;40;20041;-62
2021/05/12 01:57:40;;;;;;;20.63;14.88;;;;;;;9.68;100.00;101021.97;3556330;40;20052;-64
2021/05/12 02:00:20;;;;;;;18.10;14.05;;;;;;;9.61;100.00;101018.09;3557806;40;20147;-64
2021/05/12 02:02:46;;;;;;;18.23;14.32;;;;;;;9.55;100.00;101016.75;3559815;40;20561;-62
2021/05/12 02:08:34;;;;;;;18.30;13.93;;;;;;;9.39;100.00;101010.94;3559167;40;20345;-62
2021/05/12 02:11:02;;;;;;;21.05;15.70;;;;;;;9.43;100.00;101015.09;3562688;40;20272;-63
2021/05/12 02:13:31;;;;;;;20.65;14.48;;;;;;;9.48;100.00;101010.16;3555815;40;20089;-61
2021/05/12 02:15:58;;;;;;;20.33;14.93;;;;;;;9.41;100.00;101017.06;3561678;40;20150;-63
2021/05/12 02:18:25;;;;;;;21.52;14.57;;;;;;;9.42;100.00;101011.56;3557676;40;20060;-62
2021/05/12 02:20:51;;;;;;;23.85;15.50;;;;;;;9.25;100.00;101018.28;3558742;40;20071;-62
2021/05/12 02:23:18;;;;;;;17.55;14.27;;;;;;;9.31;100.00;101014.25;3557890;40;20085;-62
2021/05/12 02:25:45;;;;;;;27.33;15.98;;;;;;;9.31;100.00;101008.03;3554386;40;20413;-61
2021/05/12 02:28:11;;;;;;;22.05;15.95;;;;;;;9.42;100.00;101006.19;3559092;40;20376;-64
2021/05/12 02:30:39;;;;;;;20.60;15.95;;;;;;;9.45;100.00;101002.38;3560748;40;20060;-61
2021/05/12 02:33:06;;;;;;;20.63;16.17;;;;;;;9.43;100.00;101001.66;3559806;40;20100;-62
2021/05/12 02:35:32;;;;;;;22.38;15.63;;;;;;;9.41;100.00;100999.09;3560475;40;20286;-61
2021/05/12 02:37:59;;;;;;;22.60;15.23;;;;;;;9.45;100.00;101005.94;3559102;40;20049;-62
2021/05/12 02:40:25;;;;;;;19.27;15.13;;;;;;;9.51;100.00;101001.00;3556932;40;20423;-62
2021/05/12 02:42:52;;;;;;;22.38;15.88;;;;;;;9.55;100.00;100995.25;3559391;40;20041;-61
2021/05/12 02:45:19;;;;;;;19.67;15.15;;;;;;;9.60;100.00;101008.34;3557801;40;20053;-64
2021/05/12 02:47:57;;;;;;;20.70;14.73;;;;;;;9.51;100.00;101007.25;3557944;40;20088;-61
2021/05/12 02:50:24;;;;;;;20.40;15.13;;;;;;;9.65;100.00;101000.75;3559345;40;20061;-61
2021/05/12 02:52:50;;;;;;;22.23;16.95;;;;;;;9.57;100.00;101005.88;3558250;40;20052;-63
2021/05/12 02:55:16;;;;;;;25.65;17.00;;;;;;;9.43;100.00;101002.50;3555399;40;20053;-61
2021/05/12 02:57:42;;;;;;;24.65;18.33;;;;;;;9.33;100.00;101011.44;3560274;40;20065;-62
2021/05/12 03:00:10;;;;;;;28.17;18.27;;;;;;;9.31;100.00;101002.66;3561488;40;20091;-62
2021/05/12 03:02:36;;;;;;;28.70;19.33;;;;;;;9.27;100.00;100997.50;3556408;40;21909;-62
2021/05/12 03:05:03;;;;;;;23.70;16.42;;;;;;;9.35;100.00;101010.34;3560708;40;20045;-64
2021/05/12 03:07:29;;;;;;;26.30;17.30;;;;;;;9.43;100.00;101004.34;3559372;40;21544;-62
2021/05/12 03:09:55;;;;;;;28.65;19.08;;;;;;;9.39;100.00;101001.06;3562156;40;20091;-65
2021/05/12 03:12:21;;;;;;;32.70;18.10;;;;;;;9.34;100.00;101002.41;3559331;40;20083;-62
2021/05/12 03:14:47;;;;;;;25.58;18.63;;;;;;;9.29;100.00;101008.16;3558433;40;20060;-62
2021/05/12 03:17:13;;;;;;;22.50;16.60;;;;;;;9.13;100.00;101011.22;3561325;40;20057;-63
2021/05/12 03:19:39;;;;;;;27.55;16.98;;;;;;;9.02;100.00;101009.38;3557261;40;20056;-62
2021/05/12 03:22:06;;;;;;;25.35;17.70;;;;;;;8.99;100.00;101009.63;3559933;40;20326;-62
2021/05/12 03:24:32;;;;;;;29.52;17.58;;;;;;;8.83;100.00;101009.97;3558459;40;20517;-62
2021/05/12 03:26:58;;;;;;;31.25;19.65;;;;;;;8.73;100.00;101007.19;3559000;40;20111;-63
2021/05/12 03:29:24;;;;;;;31.50;20.55;;;;;;;8.72;100.00;101008.16;3558854;40;20100;-61
2021/05/12 03:31:50;;;;;;;29.38;19.90;;;;;;;8.64;100.00;101007.88;3556708;40;20411;-62
2021/05/12 03:34:16;;;;;;;31.55;21.17;;;;;;;8.65;100.00;101009.59;3558673;40;20333;-63
2021/05/12 03:36:42;;;;;;;35.30;21.65;;;;;;;8.67;100.00;100996.06;3558632;40;20079;-62
2021/05/12 03:39:09;;;;;;;30.30;20.77;;;;;;;8.60;100.00;101001.06;3558573;40;20033;-64
2021/05/12 03:41:35;;;;;;;32.78;20.77;;;;;;;8.58;100.00;101006.56;3622187;23;20069;-64
2021/05/12 03:44:02;;;;;;;29.92;20.95;;;;;;;8.54;100.00;101005.09;3567963;40;20048;-62
2021/05/12 03:46:28;;;;;;;27.63;19.02;;;;;;;8.65;100.00;101016.81;3569013;40;20045;-62
2021/05/12 03:48:53;;;;;;;34.78;20.50;;;;;;;8.58;100.00;101016.41;3568074;40;20036;-62
2021/05/12 03:51:20;;;;;;;36.00;21.02;;;;;;;8.55;100.00;101013.97;3567124;40;20037;-65
2021/05/12 03:53:46;;;;;;;33.65;20.88;;;;;;;8.52;100.00;101019.56;3567145;40;20527;-62
2021/05/12 03:58:43;;;;;;;34.13;20.30;;;;;;;8.49;100.00;101019.81;3639641;22;20041;-61
2021/05/12 04:01:09;;;;;;;36.53;21.73;;;;;;;8.39;100.00;101019.63;3556918;40;20077;-62
2021/05/12 04:03:35;;;;;;;36.60;21.52;;;;;;;8.33;100.00;101025.47;3560604;40;20099;-62
2021/05/12 04:06:01;;;;;;;34.35;21.75;;;;;;;8.47;100.00;101029.81;3558130;40;20575;-62
2021/05/12 04:08:27;;;;;;;32.33;20.15;;;;;;;8.44;100.00;101035.41;3559540;40;20049;-61
2021/05/12 04:10:53;;;;;;;35.40;20.00;;;;;;;8.48;100.00;101036.88;3560350;40;20103;-62
2021/05/12 04:13:20;;;;;;;34.10;20.00;;;;;;;8.35;100.00;101043.16;3558791;40;20044;-62
2021/05/12 04:15:48;;;;;;;32.40;21.15;;;;;;;8.37;100.00;101041.22;3554321;40;20430;-61
2021/05/12 04:18:14;;;;;;;36.88;20.70;;;;;;;8.40;100.00;101035.59;3556039;40;20064;-62
2021/05/12 04:20:40;;;;;;;29.35;19.20;;;;;;;8.46;100.00;101031.63;3560563;40;20052;-62
2021/05/12 04:23:06;;;;;;;33.60;19.50;;;;;;;8.40;100.00;101032.09;3568135;40;20049;-63
2021/05/12 04:25:33;;;;;;;32.13;19.40;;;;;;;8.34;100.00;101041.44;3569763;40;20057;-63
2021/05/12 04:27:59;;;;;;;31.90;21.15;;;;;;;8.35;100.00;101037.81;3569293;40;20056;-62
2021/05/12 04:30:28;;;;;;;36.35;20.23;;;;;;;8.44;100.00;101040.75;3570779;40;20061;-62
2021/05/12 04:32:58;;;;;;;34.35;21.50;;;;;;;8.48;100.00;101035.06;3570031;40;20416;-65
2021/05/12 04:35:24;;;;;;;34.30;20.48;;;;;;;8.65;100.00;101043.63;3557260;40;20049;-62
2021/05/12 04:37:50;;;;;;;33.80;21.02;;;;;;;8.62;100.00;101044.72;3561558;40;20079;-62
2021/05/12 04:40:17;;;;;;;33.28;20.48;;;;;;;8.65;100.00;101041.78;3559223;40;20087;-62
2021/05/12 04:42:43;;;;;;;34.28;20.52;;;;;;;8.66;100.00;101040.84;3560394;40;20045;-62
2021/05/12 04:45:11;;;;;;;41.28;20.85;;;;;;;8.61;100.00;101037.63;3561146;40;20168;-62
2021/05/12 04:47:38;;;;;;;35.63;21.50;;;;;;;8.68;100.00;101049.59;3559453;40;20061;-62
2021/05/12 04:50:07;;;;;;;38.88;21.02;;;;;;;8.84;100.00;101048.44;3556842;40;20362;-64
2021/05/12 04:52:33;;;;;;;34.53;22.13;;;;;;;8.82;100.00;101051.22;3562910;40;20056;-62
2021/05/12 04:54:59;;;;;;;33.60;20.38;;;;;;;8.85;100.00;101050.13;3558083;40;20159;-62
2021/05/12 04:57:25;;;;;;;33.25;20.77;;;;;;;8.88;100.00;101044.53;3558041;40;20092;-62
2021/05/12 04:59:51;;;;;;;34.45;20.88;;;;;;;8.99;100.00;101049.88;3557199;40;20054;-62
2021/05/12 05:02:17;;;;;;;32.63;20.17;;;;;;;9.01;100.00;101045.28;3562067;40;20066;-62
2021/05/12 05:04:44;;;;;;;34.85;21.52;;;;;;;8.92;100.00;101045.97;3562053;40;20050;-63
2021/05/12 05:07:09;;;;;;;42.22;21.60;;;;;;;8.98;100.00;101050.88;3561548;40;20056;-65
2021/05/12 05:09:36;;;;;;;33.95;20.88;;;;;;;9.07;100.00;101058.22;3562452;40;20749;-65
2021/05/12 05:12:02;;;;;;;34.25;20.77;;;;;;;9.18;100.00;101056.50;3562585;40;20154;-63
2021/05/12 05:14:28;;;;;;;32.17;19.17;;;;;;;9.22;100.00;101050.75;3562238;40;20049;-63
2021/05/12 05:16:54;;;;;;;31.77;20.10;;;;;;;9.23;100.00;101055.16;3564118;40;20060;-61
2021/05/12 05:19:20;;;;;;;30.33;20.77;;;;;;;9.28;100.00;101062.84;3563766;40;20045;-62
2021/05/12 05:21:49;;;;;;;43.08;22.15;;;;;;;9.35;100.00;101058.69;3560705;40;20324;-62
2021/05/12 05:24:15;;;;;;;30.38;19.90;;;;;;;9.29;100.00;101059.19;3568709;40;20049;-65
2021/05/12 05:26:41;;;;;;;32.95;20.13;;;;;;;9.32;100.00;101058.94;3571331;40;20037;-64
2021/05/12 05:29:08;;;;;;;36.67;20.85;;;;;;;9.41;100.00;101062.72;3570474;40;20049;-63
2021/05/12 05:31:33;;;;;;;35.28;21.65;;;;;;;9.41;100.00;101060.03;3570537;40;20065;-62
2021/05/12 05:33:59;;;;;;;34.65;20.60;;;;;;;9.56;100.00;101053.41;3571889;40;20056;-62
2021/05/12 05:36:25;;;;;;;33.42;18.92;;;;;;;9.57;100.00;101051.56;3572520;40;20053;-64
2021/05/12 05:38:52;;;;;;;32.47;18.27;;;;;;;9.68;100.00;101059.63;3571805;40;20132;-64
2021/05/12 05:41:18;;;;;;;26.98;16.70;;;;;;;9.70;100.00;101056.78;3566294;40;20524;-62
2021/05/12 05:43:44;;;;;;;27.67;19.27;;;;;;;9.78;100.00;101054.34;3572207;40;20050;-62
2021/05/12 05:46:10;;;;;;;28.08;18.27;;;;;;;9.88;100.00;101054.41;3629122;23;20072;-62
2021/05/12 05:48:36;;;;;;;32.25;17.88;;;;;;;9.99;100.00;101067.84;3580668;40;20076;-62
2021/05/12 05:51:02;;;;;;;27.15;17.45;;;;;;;10.06;100.00;101058.28;3581370;40;20072;-64
2021/05/12 05:53:28;;;;;;;27.40;16.63;;;;;;;10.06;100.00;101062.81;3582075;40;20057;-62
2021/05/12 05:55:55;;;;;;;25.90;17.40;;;;;;;10.09;100.00;101055.34;3576186;40;20055;-62
2021/05/12 05:58:21;;;;;;;29.70;17.65;;;;;;;10.12;100.00;101062.31;3580033;40;20057;-62
2021/05/12 06:00:47;;;;;;;29.00;16.85;;;;;;;10.27;100.00;101054.78;3580401;40;20049;-64
2021/05/12 06:03:13;;;;;;;24.73;17.20;;;;;;;10.27;100.00;101060.16;3581158;40;20328;-62
2021/05/12 06:05:45;;;;;;;27.40;15.93;;;;;;;10.38;100.00;101060.16;3582093;40;20382;-62
2021/05/12 06:08:11;;;;;;;25.23;13.90;;;;;;;10.52;100.00;101062.50;3581432;40;20134;-64
2021/05/12 06:10:37;;;;;;;25.08;15.13;;;;;;;10.69;100.00;101060.22;3579955;40;20060;-64
2021/05/12 06:13:04;;;;;;;24.08;12.88;;;;;;;10.86;100.00;101054.22;3581861;40;20077;-62
2021/05/12 06:15:30;;;;;;;20.15;11.25;;;;;;;10.98;100.00;101055.00;3582130;40;20141;-62
2021/05/12 06:17:56;;;;;;;23.67;10.63;;;;;;;11.00;100.00;101062.94;3582670;40;20392;-62
2021/05/12 06:20:22;;;;;;;21.23;11.32;;;;;;;11.09;100.00;101064.81;3582476;40;20073;-62
2021/05/12 06:22:48;;;;;;;25.55;11.60;;;;;;;11.31;100.00;101069.19;3581878;40;20088;-64
2021/05/12 06:25:14;;;;;;;17.67;10.77;;;;;;;11.42;100.00;101068.22;3581658;40;20311;-64
2021/05/12 06:27:40;;;;;;;19.00;9.63;;;;;;;11.39;100.00;101068.50;3582047;40;20626;-63
2021/05/12 06:30:09;;;;;;;23.17;10.07;;;;;;;11.42;100.00;101072.75;3581183;40;20134;-62
2021/05/12 06:32:35;;;;;;;18.88;10.70;;;;;;;11.47;100.00;101071.38;3581687;40;20068;-63
2021/05/12 06:35:01;;;;;;;19.45;10.23;;;;;;;11.52;100.00;101068.25;3581848;40;20438;-62
2021/05/12 06:37:29;;;;;;;23.08;11.02;;;;;;;11.49;100.00;101080.16;3581481;40;20045;-64
2021/05/12 06:39:55;;;;;;;24.23;10.23;;;;;;;11.62;100.00;101073.69;3582128;40;20064;-63
2021/05/12 06:42:21;;;;;;;24.73;11.15;;;;;;;11.60;100.00;101073.81;3581562;40;20396;-63
2021/05/12 06:44:47;;;;;;;17.77;10.35;;;;;;;11.75;100.00;101068.91;3582383;40;20130;-62
2021/05/12 06:47:13;;;;;;;22.40;10.77;;;;;;;11.83;100.00;101070.88;3581116;40;20109;-63
2021/05/12 06:49:39;;;;;;;16.27;9.05;;;;;;;11.84;100.00;101073.44;3582014;40;20413;-63
2021/05/12 06:52:06;;;;;;;21.83;9.68;;;;;;;12.09;100.00;101079.34;3582014;40;20044;-63
2021/05/12 06:54:32;;;;;;;18.52;9.88;;;;;;;12.02;100.00;101075.50;3581455;40;20052;-62
2021/05/12 06:56:58;;;;;;;22.73;9.70;;;;;;;12.09;100.00;101080.19;3578950;40;20056;-62
2021/05/12 06:59:24;;;;;;;16.52;8.80;;;;;;;12.14;100.00;101087.84;3580885;40;20068;-63
2021/05/12 07:01:52;;;;;;;15.30;8.38;;;;;;;12.23;100.00;101081.63;3581319;40;20060;-65
2021/05/12 07:04:19;;;;;;;17.40;8.00;;;;;;;12.20;100.00;101073.78;3580422;40;20049;-63
2021/05/12 07:06:45;;;;;;;14.68;7.30;;;;;;;12.30;100.00;101078.34;3581838;40;20053;-64
2021/05/12 07:09:11;;;;;;;21.42;6.65;;;;;;;12.31;100.00;101078.22;3581504;40;20442;-63
2021/05/12 07:11:37;;;;;;;17.73;6.85;;;;;;;12.33;100.00;101073.50;3582077;40;20110;-64
2021/05/12 07:14:06;;;;;;;13.98;5.53;;;;;;;12.49;100.00;101067.53;3581525;40;20056;-64
2021/05/12 07:16:32;;;;;;;;;;;;;;;12.62;100.00;101078.88;3582802;40;20044;-63
2021/05/12 07:18:58;;;;;;;16.08;5.60;;;;;;;12.78;100.00;101075.59;3581896;40;20006;-64
2021/05/12 07:21:24;;;;;;;14.25;4.55;;;;;;;12.68;100.00;101082.03;3581545;40;20055;-63
2021/05/12 07:23:50;;;;;;;21.80;5.63;;;;;;;12.87;100.00;101078.44;3581789;40;20049;-64
2021/05/12 07:26:16;;;;;;;18.67;5.70;;;;;;;12.83;100.00;101069.75;3580095;40;20045;-63
2021/05/12 07:28:44;;;;;;;13.52;4.38;;;;;;;12.79;100.00;101069.22;3580756;40;20079;-63
2021/05/12 07:31:10;;;;;;;15.85;4.70;;;;;;;12.93;100.00;101075.97;3581048;40;20658;-64
2021/05/12 07:33:36;;;;;;;10.23;3.53;;;;;;;12.92;100.00;101070.72;3580764;40;20049;-62
2021/05/12 07:36:03;;;;;;;11.80;3.63;;;;;;;13.37;100.00;101074.56;3580928;40;20047;-63
2021/05/12 07:38:29;;;;;;;11.05;3.00;;;;;;;13.47;100.00;101072.69;3581167;40;20051;-63
2021/05/12 07:40:58;;;;;;;15.43;3.00;;;;;;;13.38;100.00;101076.28;3581689;40;20052;-63
2021/05/12 07:43:24;;;;;;;9.25;2.80;;;;;;;13.56;100.00;101071.81;3581914;40;20060;-63
2021/05/12 07:45:50;;;;;;;10.93;2.67;;;;;;;13.50;100.00;101072.41;3581581;40;20092;-63
2021/05/12 07:48:16;;;;;;;8.82;2.40;;;;;;;13.68;100.00;101080.56;3579703;40;20399;-65
2021/05/12 07:50:42;;;;;;;9.50;2.92;;;;;;;13.60;100.00;101078.63;3581940;40;20104;-63
2021/05/12 07:53:08;;;;;;;10.32;2.88;;;;;;;13.82;100.00;101082.75;3581262;40;20131;-63
2021/05/12 07:55:37;;;;;;;15.13;2.97;;;;;;;13.72;100.00;101083.78;3580405;40;20059;-64
2021/05/12 07:58:04;;;;;;;10.67;2.20;;;;;;;13.90;100.00;101083.81;3638366;22;20060;-63
2021/05/12 08:00:31;;;;;;;9.98;2.50;;;;;;;13.80;100.00;101087.44;3561284;40;20072;-63
2021/05/12 08:02:57;;;;;;;7.28;2.20;;;;;;;13.72;100.00;101090.09;3559506;40;20383;-62
2021/05/12 08:05:23;;;;;;;7.00;1.90;;;;;;;13.89;100.00;101079.44;3561430;40;20089;-63
2021/05/12 08:07:49;;;;;;;5.65;1.85;;;;;;;14.08;100.00;101081.16;3560587;40;20066;-64
2021/05/12 08:10:15;;;;;;;9.73;2.75;;;;;;;14.13;100.00;101087.81;3560876;40;20053;-63
2021/05/12 08:12:42;;;;;;;8.32;2.25;;;;;;;14.20;100.00;101090.75;3561189;40;20393;-63
2021/05/12 08:15:09;;;;;;;13.05;3.10;;;;;;;14.23;100.00;101079.59;3558809;40;20033;-63
2021/05/12 08:17:35;;;;;;;12.57;2.42;;;;;;;14.21;100.00;101087.03;3562294;40;20050;-63
2021/05/12 08:20:03;;;;;;;7.00;2.13;;;;;;;14.61;100.00;101080.31;3560760;40;21635;-65
2021/05/12 08:22:29;;;;;;;8.52;2.25;;;;;;;14.49;100.00;101079.66;3561048;40;20089;-62
2021/05/12 08:24:55;;;;;;;12.02;2.00;;;;;;;14.61;100.00;101088.44;3560542;40;20332;-65
2021/05/12 08:27:21;;;;;;;10.57;2.15;;;;;;;14.81;100.00;101089.09;3560992;40;20046;-64
2021/05/12 08:29:48;;;;;;;9.15;1.70;;;;;;;14.84;100.00;101082.50;3560874;40;20046;-65
2021/05/12 08:32:16;;;;;;;9.15;1.90;;;;;;;14.85;100.00;101082.34;3560396;40;20058;-65
2021/05/12 08:34:42;;;;;;;10.98;1.88;;;;;;;15.07;100.00;101083.69;3561374;40;20270;-65
2021/05/12 08:37:08;;;;;;;8.07;2.25;;;;;;;14.70;100.00;101092.91;3560835;40;20390;-63
2021/05/12 08:39:34;;;;;;;11.23;2.00;;;;;;;14.85;100.00;101078.78;3560767;40;20067;-65
2021/05/12 08:42:00;;;;;;;8.93;2.45;;;;;;;15.11;100.00;101083.38;3561025;40;20126;-63
2021/05/12 08:44:26;;;;;;;14.85;2.60;;;;;;;15.19;100.00;101086.97;3560821;40;20050;-63
2021/05/12 08:46:53;;;;;;;11.63;2.67;;;;;;;15.34;100.00;101076.38;3559919;40;20036;-63
2021/05/12 08:49:20;;;;;;;11.38;2.33;;;;;;;15.53;100.00;101082.53;3559621;40;20047;-62
2021/05/12 08:51:46;;;;;;;7.90;2.50;;;;;;;15.17;100.00;101075.44;3561218;40;20056;-62
2021/05/12 08:54:14;;;;;;;7.82;2.10;;;;;;;15.48;100.00;101084.91;3560338;40;20307;-64
2021/05/12 08:56:40;;;;;;;12.18;2.40;;;;;;;15.51;100.00;101085.41;3561094;40;20119;-63
2021/05/12 08:59:07;;;;;;;10.00;2.65;;;;;;;15.46;100.00;101084.19;3565353;40;20058;-64
2021/05/12 09:01:33;;;;;;;8.95;1.75;;;;;;;15.37;100.00;101078.75;3570452;40;20041;-65
2021/05/12 09:04:01;;;;;;;9.05;1.92;;;;;;;15.57;100.00;101081.22;3571462;40;20041;-63
2021/05/12 09:06:28;;;;;;;6.70;1.80;;;;;;;15.85;100.00;101078.28;3570752;40;20045;-63
2021/05/12 09:08:57;;;;;;;10.25;2.00;;;;;;;15.95;100.00;101084.41;3570886;40;20263;-63
2021/05/12 09:11:23;;;;;;;5.53;1.65;;;;;;;15.59;100.00;101073.75;3574345;40;20049;-63
2021/05/12 09:13:49;;;;;;;7.05;2.17;;;;;;;15.79;100.00;101082.50;3573843;40;20045;-64
2021/05/12 09:16:19;;;;;;;8.52;1.80;;;;;;;15.59;100.00;101076.47;3573946;40;20035;-64
2021/05/12 09:18:45;;;;;;;8.48;2.08;;;;;;;15.35;100.00;101078.06;3573355;40;20048;-64
2021/05/12 09:21:13;;;;;;;9.05;2.00;;;;;;;15.54;100.00;101074.25;3572631;40;20052;-64
2021/05/12 09:23:40;;;;;;;6.40;1.80;;;;;;;16.08;100.00;101079.34;3574339;40;20077;-63
2021/05/12 09:26:12;;;;;;;13.20;2.38;;;;;;;16.25;100.00;101082.97;3573330;40;21893;-63
2021/05/12 09:28:38;;;;;;;7.45;1.98;;;;;;;16.34;100.00;101080.22;3573041;40;20042;-62
2021/05/12 09:31:11;;;;;;;14.35;2.60;;;;;;;15.93;100.00;101078.31;3573947;40;20040;-65
2021/05/12 09:33:40;;;;;;;8.93;2.45;;;;;;;16.23;100.00;101074.13;3573661;40;20055;-63
2021/05/12 09:36:08;;;;;;;9.85;2.20;;;;;;;16.73;100.00;101080.41;3572140;40;20391;-64
2021/05/12 09:38:37;;;;;;;9.27;2.00;;;;;;;17.15;100.00;101079.34;3573619;40;20037;-64
2021/05/12 09:41:06;;;;;;;7.80;1.95;;;;;;;16.98;100.00;101069.53;3573793;40;20055;-64
2021/05/12 09:43:33;;;;;;;7.03;2.05;;;;;;;16.87;100.00;101081.63;3573350;40;20130;-62
2021/05/12 09:46:20;;;;;;;10.05;1.98;;;;;;;17.15;100.00;101079.34;3573788;40;20081;-62
2021/05/12 09:48:48;;;;;;;9.98;2.15;;;;;;;17.02;100.00;101072.75;3573545;40;20077;-61
2021/05/12 09:51:18;;;;;;;8.50;2.15;;;;;;;16.93;100.00;101069.19;3571862;40;20059;-64
2021/05/12 09:54:09;;;;;;;7.82;2.05;;;;;;;17.10;100.00;101076.28;3573133;40;20127;-65
2021/05/12 09:56:45;;;;;;;9.57;2.15;;;;;;;16.70;100.00;101075.31;3573771;40;20195;-62
2021/05/12 09:59:14;;;;;;;6.50;2.20;;;;;;;17.14;100.00;101069.47;3566897;40;20038;-64
2021/05/12 10:04:34;;;;;;;6.30;2.13;;;;;;;17.88;100.00;101064.75;3647449;23;20076;-63
2021/05/12 10:07:03;;;;;;;8.77;2.13;;;;;;;18.00;100.00;101060.63;3583704;40;20315;-63
2021/05/12 10:09:31;;;;;;;7.80;1.65;;;;;;;17.46;100.00;101056.81;3583892;40;20076;-61
2021/05/12 10:12:05;;;;;;;12.60;2.30;;;;;;;17.38;100.00;101062.25;3581505;40;20359;-62
2021/05/12 10:14:32;;;;;;;8.30;1.95;;;;;;;17.35;100.00;101068.06;3584429;40;20059;-64
2021/05/12 10:16:59;;;;;;;6.80;1.63;;;;;;;17.25;100.00;101064.69;3584405;40;20064;-63
2021/05/12 10:19:25;;;;;;;8.13;1.92;;;;;;;17.25;100.00;101061.97;3580712;40;20041;-63
2021/05/12 10:21:51;;;;;;;7.55;1.73;;;;;;;17.51;100.00;101068.00;3582019;40;20045;-62
2021/05/12 10:24:18;;;;;;;6.13;1.80;;;;;;;17.33;97.93;101067.41;3582142;40;20138;-62
2021/05/12 10:26:46;;;;;;;9.52;1.67;;;;;;;16.79;100.00;101074.28;3582324;40;20048;-62
2021/05/12 10:29:14;;;;;;;8.15;2.22;;;;;;;16.55;100.00;101087.88;3579912;40;20070;-62
2021/05/12 10:31:40;;;;;;;8.95;1.80;;;;;;;16.49;100.00;101085.84;3580246;40;20047;-62
2021/05/12 10:34:06;;;;;;;8.80;2.00;;;;;;;16.57;100.00;101086.69;3582192;40;20393;-62
2021/05/12 10:36:32;;;;;;;8.52;1.85;;;;;;;17.07;98.68;101082.06;3580433;40;20123;-62
2021/05/12 10:39:02;;;;;;;8.73;2.03;;;;;;;17.66;98.43;101075.41;3580785;40;20047;-62
2021/05/12 10:41:46;;;;;;;5.97;1.70;;;;;;;17.84;100.00;101066.97;3581889;40;20105;-62
2021/05/12 10:44:17;;;;;;;5.75;1.70;;;;;;;18.38;100.00;101058.81;3581376;40;20037;-64
2021/05/12 10:49:50;;;;;;;6.55;1.77;;;;;;;17.52;90.91;101058.81;3486221;23;20049;-64
2021/05/12 10:52:17;;;;;;;8.23;2.10;;;;;;;17.65;93.15;101062.81;3580164;40;20048;-62
2021/05/12 10:54:45;;;;;;;8.45;1.70;;;;;;;17.99;92.79;101065.22;3581404;40;20068;-62
2021/05/12 10:57:32;;;;;;;8.73;2.20;;;;;;;17.54;99.64;101065.97;3580525;40;20400;-61
2021/05/12 10:59:58;;;;;;;9.52;2.22;;;;;;;17.69;98.41;101058.72;3580981;40;20388;-61
2021/05/12 11:02:59;;;;;;;8.00;2.38;;;;;;;17.82;99.55;101061.72;3580162;40;20055;-64
2021/05/12 11:05:40;;;;;;;6.65;1.98;;;;;;;18.63;88.45;101060.50;3580668;40;20057;-64
2021/05/12 11:08:14;;;;;;;7.22;1.75;;;;;;;18.85;86.37;101062.31;3579557;40;20048;-61
2021/05/12 11:10:51;;;;;;;9.73;2.50;;;;;;;17.83;85.55;101063.41;3581015;40;20422;-62
2021/05/12 11:13:18;;;;;;;7.55;1.88;;;;;;;17.76;87.21;101058.88;3579563;40;20054;-63
2021/05/12 11:15:53;;;;;;;7.47;2.15;;;;;;;17.94;85.10;101055.91;3579881;40;20077;-61
2021/05/12 11:18:50;;;;;;;8.05;2.05;;;;;;;18.00;83.61;101056.00;3580181;40;20051;-62
2021/05/12 11:21:27;;;;;;;7.95;1.83;;;;;;;17.08;93.79;101056.59;3581080;40;20041;-62
2021/05/12 11:24:14;;;;;;;9.07;1.90;;;;;;;17.46;91.52;101047.78;3580346;40;20135;-63
2021/05/12 11:26:50;;;;;;;9.45;2.15;;;;;;;16.84;98.17;101052.00;3580552;40;20047;-62